sensor_id;sensor_type;location;lat;lon;timestamp;temperature;humidity
15296;DHT22;7749;49.964;7.890;2023-10-08T00:01:18;17.30;99.90
15296;DHT22;7749;49.964;7.890;2023-10-08T00:03:46;17.50;99.90
15296;DHT22;7749;49.964;7.890;2023-10-08T00:06:18;17.40;99.90
15296;DHT22;7749;49.964;7.890;2023-10-08T00:08:48;17.60;99.90
15296;DHT22;7749;49.964;7.890;2023-10-08T00:11:17;17.60;99.90
15296;DHT22;7749;49.964;7.890;2023-10-08T00:13:46;17.50;54.80
15296;DHT22;7749;49.964;7.890;2023-10-08T00:16:16;17.40;82.90
15296;DHT22;7749;49.964;7.890;2023-10-08T00:18:45;17.40;62.70
15296;DHT22;7749;49.964;7.890;2023-10-08T00:21:21;17.50;45.10
15296;DHT22;7749;49.964;7.890;2023-10-08T00:23:55;17.40;76.40
15296;DHT22;7749;49.964;7.890;2023-10-08T00:26:29;17.20;99.90
15296;DHT22;7749;49.964;7.890;2023-10-08T00:28:59;17.00;99.90
15296;DHT22;7749;49.964;7.890;2023-10-08T00:31:27;16.90;99.90
15296;DHT22;7749;49.964;7.890;2023-10-08T00:33:59;16.90;99.90
15296;DHT22;7749;49.964;7.890;2023-10-08T00:36:27;16.90;99.90
15296;DHT22;7749;49.964;7.890;2023-10-08T00:38:55;16.90;99.90
15296;DHT22;7749;49.964;7.890;2023-10-08T00:41:27;16.90;99.90
15296;DHT22;7749;49.964;7.890;2023-10-08T00:44:00;16.90;99.90
15296;DHT22;7749;49.964;7.890;2023-10-08T00:46:29;17.00;99.90
15296;DHT22;7749;49.964;7.890;2023-10-08T00:49:02;17.00;99.90
15296;DHT22;7749;49.964;7.890;2023-10-08T00:51:52;16.80;99.90
15296;DHT22;7749;49.964;7.890;2023-10-08T00:54:36;16.70;99.90
15296;DHT22;7749;49.964;7.890;2023-10-08T00:57:34;16.90;99.50
15296;DHT22;7749;49.964;7.890;2023-10-08T01:00:05;17.00;74.50
15296;DHT22;7749;49.964;7.890;2023-10-08T01:02:44;17.20;99.90
15296;DHT22;7749;49.964;7.890;2023-10-08T01:05:17;17.20;99.90
15296;DHT22;7749;49.964;7.890;2023-10-08T01:08:08;17.20;99.90
15296;DHT22;7749;49.964;7.890;2023-10-08T01:10:35;17.30;5.50
15296;DHT22;7749;49.964;7.890;2023-10-08T01:13:03;17.30;1.00
15296;DHT22;7749;49.964;7.890;2023-10-08T01:15:41;17.30;1.00
15296;DHT22;7749;49.964;7.890;2023-10-08T01:18:11;17.20;10.70
15296;DHT22;7749;49.964;7.890;2023-10-08T01:20:42;17.10;21.30
15296;DHT22;7749;49.964;7.890;2023-10-08T01:23:17;17.10;26.50
15296;DHT22;7749;49.964;7.890;2023-10-08T01:25:49;16.90;41.40
15296;DHT22;7749;49.964;7.890;2023-10-08T01:28:24;16.90;69.50
15296;DHT22;7749;49.964;7.890;2023-10-08T01:30:58;16.80;62.80
15296;DHT22;7749;49.964;7.890;2023-10-08T01:33:28;16.80;88.60
15296;DHT22;7749;49.964;7.890;2023-10-08T01:35:57;16.70;95.00
15296;DHT22;7749;49.964;7.890;2023-10-08T01:38:33;16.60;99.30
15296;DHT22;7749;49.964;7.890;2023-10-08T01:41:01;16.50;99.90
15296;DHT22;7749;49.964;7.890;2023-10-08T01:43:32;16.40;99.90
15296;DHT22;7749;49.964;7.890;2023-10-08T01:46:02;16.40;99.90
15296;DHT22;7749;49.964;7.890;2023-10-08T01:48:30;16.70;81.20
15296;DHT22;7749;49.964;7.890;2023-10-08T01:51:05;17.00;99.90
15296;DHT22;7749;49.964;7.890;2023-10-08T01:53:46;17.20;99.90
15296;DHT22;7749;49.964;7.890;2023-10-08T01:56:15;17.20;99.90
15296;DHT22;7749;49.964;7.890;2023-10-08T01:58:42;17.10;99.90
15296;DHT22;7749;49.964;7.890;2023-10-08T02:01:10;16.90;24.70
15296;DHT22;7749;49.964;7.890;2023-10-08T02:03:39;16.70;53.00
15296;DHT22;7749;49.964;7.890;2023-10-08T02:06:09;16.40;96.90
15296;DHT22;7749;49.964;7.890;2023-10-08T02:08:37;16.30;99.90
15296;DHT22;7749;49.964;7.890;2023-10-08T02:11:04;16.20;99.90
15296;DHT22;7749;49.964;7.890;2023-10-08T02:13:33;16.20;99.90
15296;DHT22;7749;49.964;7.890;2023-10-08T02:16:02;16.10;99.90
15296;DHT22;7749;49.964;7.890;2023-10-08T02:18:29;16.10;99.90
15296;DHT22;7749;49.964;7.890;2023-10-08T02:20:58;16.10;99.90
15296;DHT22;7749;49.964;7.890;2023-10-08T02:23:26;15.90;99.90
15296;DHT22;7749;49.964;7.890;2023-10-08T02:25:55;15.90;99.90
15296;DHT22;7749;49.964;7.890;2023-10-08T02:28:23;15.80;99.90
15296;DHT22;7749;49.964;7.890;2023-10-08T02:30:51;15.70;99.90
15296;DHT22;7749;49.964;7.890;2023-10-08T02:33:19;15.70;99.90
15296;DHT22;7749;49.964;7.890;2023-10-08T02:35:47;15.70;99.90
15296;DHT22;7749;49.964;7.890;2023-10-08T02:38:18;15.70;99.90
15296;DHT22;7749;49.964;7.890;2023-10-08T02:40:46;15.60;99.90
15296;DHT22;7749;49.964;7.890;2023-10-08T02:43:16;15.60;99.90
15296;DHT22;7749;49.964;7.890;2023-10-08T02:45:45;15.60;99.90
15296;DHT22;7749;49.964;7.890;2023-10-08T02:48:18;15.50;99.90
15296;DHT22;7749;49.964;7.890;2023-10-08T02:50:47;15.50;99.90
15296;DHT22;7749;49.964;7.890;2023-10-08T02:53:15;15.40;99.90
15296;DHT22;7749;49.964;7.890;2023-10-08T02:55:48;15.30;99.90
15296;DHT22;7749;49.964;7.890;2023-10-08T02:58:17;15.30;99.90
15296;DHT22;7749;49.964;7.890;2023-10-08T03:00:48;15.30;99.90
15296;DHT22;7749;49.964;7.890;2023-10-08T03:03:19;15.30;99.90
15296;DHT22;7749;49.964;7.890;2023-10-08T03:05:51;15.20;99.90
15296;DHT22;7749;49.964;7.890;2023-10-08T03:08:19;15.20;99.90
15296;DHT22;7749;49.964;7.890;2023-10-08T03:10:53;15.20;99.90
15296;DHT22;7749;49.964;7.890;2023-10-08T03:13:24;15.10;99.90
15296;DHT22;7749;49.964;7.890;2023-10-08T03:15:53;15.00;99.90
15296;DHT22;7749;49.964;7.890;2023-10-08T03:18:30;15.00;99.90
15296;DHT22;7749;49.964;7.890;2023-10-08T03:21:06;15.00;99.90
15296;DHT22;7749;49.964;7.890;2023-10-08T03:23:51;15.00;99.90
15296;DHT22;7749;49.964;7.890;2023-10-08T03:26:20;15.00;99.90
15296;DHT22;7749;49.964;7.890;2023-10-08T03:29:04;15.00;99.90
15296;DHT22;7749;49.964;7.890;2023-10-08T03:31:37;14.90;99.90
15296;DHT22;7749;49.964;7.890;2023-10-08T03:34:14;14.90;99.90
15296;DHT22;7749;49.964;7.890;2023-10-08T03:36:42;14.80;99.90
15296;DHT22;7749;49.964;7.890;2023-10-08T03:39:17;14.90;99.90
15296;DHT22;7749;49.964;7.890;2023-10-08T03:41:47;14.90;99.90
15296;DHT22;7749;49.964;7.890;2023-10-08T03:44:34;14.90;99.90
15296;DHT22;7749;49.964;7.890;2023-10-08T03:47:05;14.90;99.90
15296;DHT22;7749;49.964;7.890;2023-10-08T03:49:39;14.90;99.90
15296;DHT22;7749;49.964;7.890;2023-10-08T03:52:13;14.90;99.90
15296;DHT22;7749;49.964;7.890;2023-10-08T03:54:40;14.90;99.90
15296;DHT22;7749;49.964;7.890;2023-10-08T03:57:16;14.80;99.90
15296;DHT22;7749;49.964;7.890;2023-10-08T03:59:52;14.90;99.90
15296;DHT22;7749;49.964;7.890;2023-10-08T04:02:26;14.90;99.90
15296;DHT22;7749;49.964;7.890;2023-10-08T04:05:14;14.90;99.90
15296;DHT22;7749;49.964;7.890;2023-10-08T04:07:48;15.10;99.90
15296;DHT22;7749;49.964;7.890;2023-10-08T04:10:35;15.10;99.90
15296;DHT22;7749;49.964;7.890;2023-10-08T04:13:05;15.00;99.90
15296;DHT22;7749;49.964;7.890;2023-10-08T04:15:37;15.00;99.90
15296;DHT22;7749;49.964;7.890;2023-10-08T04:18:10;15.00;99.90
15296;DHT22;7749;49.964;7.890;2023-10-08T04:20:38;15.20;99.90
15296;DHT22;7749;49.964;7.890;2023-10-08T04:23:10;15.20;99.90
15296;DHT22;7749;49.964;7.890;2023-10-08T04:25:48;15.30;99.90
15296;DHT22;7749;49.964;7.890;2023-10-08T04:28:22;15.40;99.90
15296;DHT22;7749;49.964;7.890;2023-10-08T04:30:50;15.40;99.90
15296;DHT22;7749;49.964;7.890;2023-10-08T04:33:20;15.40;99.90
15296;DHT22;7749;49.964;7.890;2023-10-08T04:35:48;15.30;99.90
15296;DHT22;7749;49.964;7.890;2023-10-08T04:38:20;15.20;99.90
15296;DHT22;7749;49.964;7.890;2023-10-08T04:40:53;15.40;99.90
15296;DHT22;7749;49.964;7.890;2023-10-08T04:43:22;15.40;99.90
15296;DHT22;7749;49.964;7.890;2023-10-08T04:45:54;15.30;99.90
15296;DHT22;7749;49.964;7.890;2023-10-08T04:48:25;15.30;99.90
15296;DHT22;7749;49.964;7.890;2023-10-08T04:50:55;15.30;99.90
15296;DHT22;7749;49.964;7.890;2023-10-08T04:53:31;15.30;99.90
15296;DHT22;7749;49.964;7.890;2023-10-08T04:56:00;15.30;99.90
15296;DHT22;7749;49.964;7.890;2023-10-08T04:58:41;15.30;99.90
15296;DHT22;7749;49.964;7.890;2023-10-08T05:01:08;15.20;99.90
15296;DHT22;7749;49.964;7.890;2023-10-08T05:03:50;15.10;99.90
15296;DHT22;7749;49.964;7.890;2023-10-08T05:06:30;15.20;99.90
15296;DHT22;7749;49.964;7.890;2023-10-08T05:09:09;15.10;99.90
15296;DHT22;7749;49.964;7.890;2023-10-08T05:11:47;15.00;99.90
15296;DHT22;7749;49.964;7.890;2023-10-08T05:14:20;15.00;99.90
15296;DHT22;7749;49.964;7.890;2023-10-08T05:17:07;14.90;99.90
15296;DHT22;7749;49.964;7.890;2023-10-08T05:19:40;14.80;99.90
15296;DHT22;7749;49.964;7.890;2023-10-08T05:22:09;15.00;99.90
15296;DHT22;7749;49.964;7.890;2023-10-08T05:24:50;15.10;99.90
15296;DHT22;7749;49.964;7.890;2023-10-08T05:27:53;15.40;99.90
15296;DHT22;7749;49.964;7.890;2023-10-08T05:30:27;15.60;99.90
15296;DHT22;7749;49.964;7.890;2023-10-08T05:33:20;15.80;99.90
15296;DHT22;7749;49.964;7.890;2023-10-08T05:36:11;15.90;99.90
15296;DHT22;7749;49.964;7.890;2023-10-08T05:38:45;16.10;99.90
15296;DHT22;7749;49.964;7.890;2023-10-08T05:41:17;16.10;99.90
15296;DHT22;7749;49.964;7.890;2023-10-08T05:43:55;16.10;99.90
15296;DHT22;7749;49.964;7.890;2023-10-08T05:46:41;15.80;99.90
15296;DHT22;7749;49.964;7.890;2023-10-08T05:49:24;15.60;99.90
15296;DHT22;7749;49.964;7.890;2023-10-08T05:51:57;15.40;99.90
15296;DHT22;7749;49.964;7.890;2023-10-08T05:54:32;15.30;99.90
15296;DHT22;7749;49.964;7.890;2023-10-08T05:57:03;15.30;99.90
15296;DHT22;7749;49.964;7.890;2023-10-08T05:59:44;15.20;99.90
15296;DHT22;7749;49.964;7.890;2023-10-08T06:02:42;15.20;99.90
15296;DHT22;7749;49.964;7.890;2023-10-08T06:05:13;15.20;99.90
15296;DHT22;7749;49.964;7.890;2023-10-08T06:07:52;15.20;99.90
15296;DHT22;7749;49.964;7.890;2023-10-08T06:15:42;15.20;99.90
15296;DHT22;7749;49.964;7.890;2023-10-08T06:18:21;15.20;99.90
15296;DHT22;7749;49.964;7.890;2023-10-08T06:23:29;15.30;99.90
15296;DHT22;7749;49.964;7.890;2023-10-08T06:26:03;15.40;99.90
15296;DHT22;7749;49.964;7.890;2023-10-08T06:28:39;15.50;99.90
15296;DHT22;7749;49.964;7.890;2023-10-08T06:31:07;15.50;99.90
15296;DHT22;7749;49.964;7.890;2023-10-08T06:33:40;15.40;99.90
15296;DHT22;7749;49.964;7.890;2023-10-08T06:36:10;15.40;99.90
15296;DHT22;7749;49.964;7.890;2023-10-08T06:38:45;15.50;99.90
15296;DHT22;7749;49.964;7.890;2023-10-08T06:41:17;15.60;99.90
15296;DHT22;7749;49.964;7.890;2023-10-08T06:44:10;15.60;99.90
15296;DHT22;7749;49.964;7.890;2023-10-08T06:46:42;15.70;99.90
15296;DHT22;7749;49.964;7.890;2023-10-08T06:49:11;15.90;99.90
15296;DHT22;7749;49.964;7.890;2023-10-08T06:51:41;16.00;99.90
15296;DHT22;7749;49.964;7.890;2023-10-08T06:54:11;16.20;99.90
15296;DHT22;7749;49.964;7.890;2023-10-08T06:56:43;16.40;99.90
15296;DHT22;7749;49.964;7.890;2023-10-08T06:59:14;16.50;99.90
15296;DHT22;7749;49.964;7.890;2023-10-08T07:01:42;16.70;99.90
15296;DHT22;7749;49.964;7.890;2023-10-08T07:04:14;16.80;99.90
15296;DHT22;7749;49.964;7.890;2023-10-08T07:06:42;17.00;99.90
15296;DHT22;7749;49.964;7.890;2023-10-08T07:09:11;17.00;99.90
15296;DHT22;7749;49.964;7.890;2023-10-08T07:11:52;16.90;97.50
15296;DHT22;7749;49.964;7.890;2023-10-08T07:14:27;16.70;99.90
15296;DHT22;7749;49.964;7.890;2023-10-08T07:16:57;16.60;99.90
15296;DHT22;7749;49.964;7.890;2023-10-08T07:19:30;16.60;99.90
15296;DHT22;7749;49.964;7.890;2023-10-08T07:22:09;16.60;99.90
15296;DHT22;7749;49.964;7.890;2023-10-08T07:24:48;16.50;99.90
15296;DHT22;7749;49.964;7.890;2023-10-08T07:27:20;16.60;99.90
15296;DHT22;7749;49.964;7.890;2023-10-08T07:30:00;16.60;99.90
15296;DHT22;7749;49.964;7.890;2023-10-08T07:32:30;16.60;99.90
15296;DHT22;7749;49.964;7.890;2023-10-08T07:34:58;16.60;99.90
15296;DHT22;7749;49.964;7.890;2023-10-08T07:37:45;16.60;99.90
15296;DHT22;7749;49.964;7.890;2023-10-08T07:40:14;16.70;99.90
15296;DHT22;7749;49.964;7.890;2023-10-08T07:42:43;16.70;99.90
15296;DHT22;7749;49.964;7.890;2023-10-08T07:45:11;16.70;99.90
15296;DHT22;7749;49.964;7.890;2023-10-08T07:47:45;16.80;99.90
15296;DHT22;7749;49.964;7.890;2023-10-08T07:50:14;16.90;99.90
15296;DHT22;7749;49.964;7.890;2023-10-08T07:52:43;17.00;99.90
15296;DHT22;7749;49.964;7.890;2023-10-08T07:55:12;17.20;87.40
15296;DHT22;7749;49.964;7.890;2023-10-08T07:57:45;17.40;63.50
15296;DHT22;7749;49.964;7.890;2023-10-08T08:00:14;17.60;40.00
15296;DHT22;7749;49.964;7.890;2023-10-08T08:02:53;17.70;23.40
15296;DHT22;7749;49.964;7.890;2023-10-08T08:05:23;17.80;3.80
15296;DHT22;7749;49.964;7.890;2023-10-08T08:07:50;17.90;1.00
15296;DHT22;7749;49.964;7.890;2023-10-08T08:10:19;17.90;1.00
15296;DHT22;7749;49.964;7.890;2023-10-08T08:12:50;17.70;9.50
15296;DHT22;7749;49.964;7.890;2023-10-08T08:15:23;17.70;1.90
15296;DHT22;7749;49.964;7.890;2023-10-08T08:17:54;17.60;1.00
15296;DHT22;7749;49.964;7.890;2023-10-08T08:20:21;17.70;1.00
15296;DHT22;7749;49.964;7.890;2023-10-08T08:22:50;17.80;1.00
15296;DHT22;7749;49.964;7.890;2023-10-08T08:25:21;17.90;1.00
15296;DHT22;7749;49.964;7.890;2023-10-08T08:28:02;17.90;1.00
15296;DHT22;7749;49.964;7.890;2023-10-08T08:30:33;17.90;1.00
15296;DHT22;7749;49.964;7.890;2023-10-08T08:33:04;18.00;1.00
15296;DHT22;7749;49.964;7.890;2023-10-08T08:35:39;18.10;1.00
15296;DHT22;7749;49.964;7.890;2023-10-08T08:38:07;18.10;99.90
15296;DHT22;7749;49.964;7.890;2023-10-08T08:40:36;18.20;99.90
15296;DHT22;7749;49.964;7.890;2023-10-08T08:43:05;18.30;99.90
15296;DHT22;7749;49.964;7.890;2023-10-08T08:45:35;18.40;99.90
15296;DHT22;7749;49.964;7.890;2023-10-08T08:48:03;18.40;99.90
15296;DHT22;7749;49.964;7.890;2023-10-08T08:50:32;18.40;99.90
15296;DHT22;7749;49.964;7.890;2023-10-08T08:53:01;18.40;99.90
15296;DHT22;7749;49.964;7.890;2023-10-08T08:55:32;18.50;99.90
15296;DHT22;7749;49.964;7.890;2023-10-08T08:58:01;18.70;99.90
15296;DHT22;7749;49.964;7.890;2023-10-08T09:00:30;18.70;99.90
15296;DHT22;7749;49.964;7.890;2023-10-08T09:02:58;18.70;99.90
15296;DHT22;7749;49.964;7.890;2023-10-08T09:05:25;18.80;99.90
15296;DHT22;7749;49.964;7.890;2023-10-08T09:07:59;18.80;99.90
15296;DHT22;7749;49.964;7.890;2023-10-08T09:10:33;18.90;99.90
15296;DHT22;7749;49.964;7.890;2023-10-08T09:13:06;19.00;99.90
15296;DHT22;7749;49.964;7.890;2023-10-08T09:15:37;19.10;99.90
15296;DHT22;7749;49.964;7.890;2023-10-08T09:18:08;19.20;99.90
15296;DHT22;7749;49.964;7.890;2023-10-08T09:20:37;19.20;99.90
15296;DHT22;7749;49.964;7.890;2023-10-08T09:23:13;19.30;99.90
15296;DHT22;7749;49.964;7.890;2023-10-08T09:25:42;19.50;99.90
15296;DHT22;7749;49.964;7.890;2023-10-08T09:28:11;19.90;99.90
15296;DHT22;7749;49.964;7.890;2023-10-08T09:30:42;20.20;99.90
15296;DHT22;7749;49.964;7.890;2023-10-08T09:33:14;20.40;99.90
15296;DHT22;7749;49.964;7.890;2023-10-08T09:35:47;20.80;99.90
15296;DHT22;7749;49.964;7.890;2023-10-08T09:38:16;21.20;99.90
15296;DHT22;7749;49.964;7.890;2023-10-08T09:40:52;21.50;99.90
15296;DHT22;7749;49.964;7.890;2023-10-08T09:43:20;21.80;99.90
15296;DHT22;7749;49.964;7.890;2023-10-08T09:46:08;22.20;99.90
15296;DHT22;7749;49.964;7.890;2023-10-08T09:48:37;22.40;99.90
15296;DHT22;7749;49.964;7.890;2023-10-08T09:51:06;22.50;99.90
15296;DHT22;7749;49.964;7.890;2023-10-08T09:53:57;22.40;99.90
15296;DHT22;7749;49.964;7.890;2023-10-08T09:56:29;22.40;99.90
15296;DHT22;7749;49.964;7.890;2023-10-08T09:58:58;22.60;99.90
15296;DHT22;7749;49.964;7.890;2023-10-08T10:01:27;22.90;99.90
15296;DHT22;7749;49.964;7.890;2023-10-08T10:03:55;22.70;99.90
15296;DHT22;7749;49.964;7.890;2023-10-08T10:06:23;22.50;99.90
15296;DHT22;7749;49.964;7.890;2023-10-08T10:08:51;22.70;99.90
15296;DHT22;7749;49.964;7.890;2023-10-08T10:11:29;22.90;99.90
15296;DHT22;7749;49.964;7.890;2023-10-08T10:14:01;23.10;99.90
15296;DHT22;7749;49.964;7.890;2023-10-08T10:16:29;23.40;99.90
15296;DHT22;7749;49.964;7.890;2023-10-08T10:18:59;23.10;99.90
15296;DHT22;7749;49.964;7.890;2023-10-08T10:21:30;23.20;99.90
15296;DHT22;7749;49.964;7.890;2023-10-08T10:23:59;23.10;99.90
15296;DHT22;7749;49.964;7.890;2023-10-08T10:26:29;23.00;99.90
15296;DHT22;7749;49.964;7.890;2023-10-08T10:31:38;23.20;99.90
15296;DHT22;7749;49.964;7.890;2023-10-08T10:34:07;23.80;99.90
15296;DHT22;7749;49.964;7.890;2023-10-08T10:36:40;24.40;99.90
15296;DHT22;7749;49.964;7.890;2023-10-08T10:39:10;24.80;99.90
15296;DHT22;7749;49.964;7.890;2023-10-08T10:41:45;25.20;99.90
15296;DHT22;7749;49.964;7.890;2023-10-08T10:44:14;25.40;99.90
15296;DHT22;7749;49.964;7.890;2023-10-08T10:46:46;25.50;99.90
15296;DHT22;7749;49.964;7.890;2023-10-08T10:49:39;26.20;99.90
15296;DHT22;7749;49.964;7.890;2023-10-08T10:52:26;27.50;99.90
15296;DHT22;7749;49.964;7.890;2023-10-08T10:55:14;28.90;99.90
15296;DHT22;7749;49.964;7.890;2023-10-08T10:57:48;29.70;99.90
15296;DHT22;7749;49.964;7.890;2023-10-08T11:00:25;30.20;99.90
15296;DHT22;7749;49.964;7.890;2023-10-08T11:03:03;30.60;98.10
15296;DHT22;7749;49.964;7.890;2023-10-08T11:05:33;31.20;96.50
15296;DHT22;7749;49.964;7.890;2023-10-08T11:08:06;31.60;93.90
15296;DHT22;7749;49.964;7.890;2023-10-08T11:10:37;32.40;90.90
15296;DHT22;7749;49.964;7.890;2023-10-08T11:13:13;32.90;89.20
15296;DHT22;7749;49.964;7.890;2023-10-08T11:15:45;33.10;84.60
15296;DHT22;7749;49.964;7.890;2023-10-08T11:18:25;32.00;83.20
15296;DHT22;7749;49.964;7.890;2023-10-08T11:21:06;32.20;82.00
15296;DHT22;7749;49.964;7.890;2023-10-08T11:23:47;32.30;81.20
15296;DHT22;7749;49.964;7.890;2023-10-08T11:26:23;33.20;78.80
15296;DHT22;7749;49.964;7.890;2023-10-08T11:29:00;33.20;77.60
15296;DHT22;7749;49.964;7.890;2023-10-08T11:31:28;33.80;75.10
15296;DHT22;7749;49.964;7.890;2023-10-08T11:34:03;34.00;72.20
15296;DHT22;7749;49.964;7.890;2023-10-08T11:36:37;34.40;70.50
15296;DHT22;7749;49.964;7.890;2023-10-08T11:39:20;34.70;66.80
15296;DHT22;7749;49.964;7.890;2023-10-08T11:42:02;35.30;66.40
15296;DHT22;7749;49.964;7.890;2023-10-08T11:44:52;35.90;63.80
15296;DHT22;7749;49.964;7.890;2023-10-08T11:47:20;36.50;61.10
15296;DHT22;7749;49.964;7.890;2023-10-08T11:49:49;36.30;60.10
15296;DHT22;7749;49.964;7.890;2023-10-08T11:52:38;35.00;59.70
15296;DHT22;7749;49.964;7.890;2023-10-08T11:55:09;33.50;62.90
15296;DHT22;7749;49.964;7.890;2023-10-08T11:57:37;33.00;63.60
15296;DHT22;7749;49.964;7.890;2023-10-08T12:00:13;33.30;63.50
15296;DHT22;7749;49.964;7.890;2023-10-08T12:02:50;33.90;63.10
15296;DHT22;7749;49.964;7.890;2023-10-08T12:05:20;33.80;62.70
15296;DHT22;7749;49.964;7.890;2023-10-08T12:07:52;33.20;63.00
15296;DHT22;7749;49.964;7.890;2023-10-08T12:10:20;32.80;63.10
15296;DHT22;7749;49.964;7.890;2023-10-08T12:12:54;33.40;63.50
15296;DHT22;7749;49.964;7.890;2023-10-08T12:15:27;33.20;62.80
15296;DHT22;7749;49.964;7.890;2023-10-08T12:18:01;33.50;62.10
15296;DHT22;7749;49.964;7.890;2023-10-08T12:20:47;34.30;61.50
15296;DHT22;7749;49.964;7.890;2023-10-08T12:23:15;34.60;59.70
15296;DHT22;7749;49.964;7.890;2023-10-08T12:25:53;35.20;59.20
15296;DHT22;7749;49.964;7.890;2023-10-08T12:28:24;35.60;57.70
15296;DHT22;7749;49.964;7.890;2023-10-08T12:30:54;35.50;57.30
15296;DHT22;7749;49.964;7.890;2023-10-08T12:33:24;36.00;55.70
15296;DHT22;7749;49.964;7.890;2023-10-08T12:35:52;36.60;55.10
15296;DHT22;7749;49.964;7.890;2023-10-08T12:38:24;36.80;54.80
15296;DHT22;7749;49.964;7.890;2023-10-08T12:41:01;36.40;53.90
15296;DHT22;7749;49.964;7.890;2023-10-08T12:43:37;36.50;53.50
15296;DHT22;7749;49.964;7.890;2023-10-08T12:46:06;37.00;52.80
15296;DHT22;7749;49.964;7.890;2023-10-08T12:48:38;36.90;52.40
15296;DHT22;7749;49.964;7.890;2023-10-08T12:51:06;36.90;51.90
15296;DHT22;7749;49.964;7.890;2023-10-08T12:53:34;36.20;51.90
15296;DHT22;7749;49.964;7.890;2023-10-08T12:56:02;35.50;53.10
15296;DHT22;7749;49.964;7.890;2023-10-08T12:58:35;35.40;53.80
15296;DHT22;7749;49.964;7.890;2023-10-08T13:01:11;35.30;53.40
15296;DHT22;7749;49.964;7.890;2023-10-08T13:03:40;35.20;53.90
15296;DHT22;7749;49.964;7.890;2023-10-08T13:06:16;35.10;54.00
15296;DHT22;7749;49.964;7.890;2023-10-08T13:08:50;35.70;53.40
15296;DHT22;7749;49.964;7.890;2023-10-08T13:11:24;35.10;53.20
15296;DHT22;7749;49.964;7.890;2023-10-08T13:13:54;35.70;53.50
15296;DHT22;7749;49.964;7.890;2023-10-08T13:16:27;35.90;52.60
15296;DHT22;7749;49.964;7.890;2023-10-08T13:18:59;35.30;53.20
15296;DHT22;7749;49.964;7.890;2023-10-08T13:21:27;34.40;54.40
15296;DHT22;7749;49.964;7.890;2023-10-08T13:23:56;33.00;57.30
15296;DHT22;7749;49.964;7.890;2023-10-08T13:26:24;32.70;58.40
15296;DHT22;7749;49.964;7.890;2023-10-08T13:28:56;32.60;58.20
15296;DHT22;7749;49.964;7.890;2023-10-08T13:31:23;32.40;58.80
15296;DHT22;7749;49.964;7.890;2023-10-08T13:33:53;31.40;60.00
15296;DHT22;7749;49.964;7.890;2023-10-08T13:36:24;30.30;62.80
15296;DHT22;7749;49.964;7.890;2023-10-08T13:38:54;29.00;65.70
15296;DHT22;7749;49.964;7.890;2023-10-08T13:41:22;28.00;69.00
15296;DHT22;7749;49.964;7.890;2023-10-08T13:43:51;27.30;72.20
15296;DHT22;7749;49.964;7.890;2023-10-08T13:46:20;26.80;75.40
15296;DHT22;7749;49.964;7.890;2023-10-08T13:48:50;26.40;76.50
15296;DHT22;7749;49.964;7.890;2023-10-08T13:51:20;26.00;78.80
15296;DHT22;7749;49.964;7.890;2023-10-08T13:53:52;25.80;80.90
15296;DHT22;7749;49.964;7.890;2023-10-08T13:56:21;25.80;81.50
15296;DHT22;7749;49.964;7.890;2023-10-08T13:58:54;26.00;81.70
15296;DHT22;7749;49.964;7.890;2023-10-08T14:01:41;26.00;81.60
15296;DHT22;7749;49.964;7.890;2023-10-08T14:04:13;26.40;82.10
15296;DHT22;7749;49.964;7.890;2023-10-08T14:06:47;27.30;79.60
15296;DHT22;7749;49.964;7.890;2023-10-08T14:09:20;29.30;75.00
15296;DHT22;7749;49.964;7.890;2023-10-08T14:11:49;31.20;68.70
15296;DHT22;7749;49.964;7.890;2023-10-08T14:14:20;33.00;64.50
15296;DHT22;7749;49.964;7.890;2023-10-08T14:16:52;34.50;60.70
15296;DHT22;7749;49.964;7.890;2023-10-08T14:19:21;35.30;56.70
15296;DHT22;7749;49.964;7.890;2023-10-08T14:21:50;36.00;54.80
15296;DHT22;7749;49.964;7.890;2023-10-08T14:24:22;35.80;53.70
15296;DHT22;7749;49.964;7.890;2023-10-08T14:26:51;35.30;53.80
15296;DHT22;7749;49.964;7.890;2023-10-08T14:29:24;35.00;54.20
15296;DHT22;7749;49.964;7.890;2023-10-08T14:31:56;34.70;54.50
15296;DHT22;7749;49.964;7.890;2023-10-08T14:34:24;35.30;54.00
15296;DHT22;7749;49.964;7.890;2023-10-08T14:37:10;35.90;52.40
15296;DHT22;7749;49.964;7.890;2023-10-08T14:39:56;36.20;51.90
15296;DHT22;7749;49.964;7.890;2023-10-08T14:42:43;35.80;52.10
15296;DHT22;7749;49.964;7.890;2023-10-08T14:45:29;35.60;52.40
15296;DHT22;7749;49.964;7.890;2023-10-08T14:48:03;36.20;51.90
15296;DHT22;7749;49.964;7.890;2023-10-08T14:50:35;35.70;52.20
15296;DHT22;7749;49.964;7.890;2023-10-08T14:53:03;34.20;53.30
15296;DHT22;7749;49.964;7.890;2023-10-08T14:55:35;32.10;57.00
15296;DHT22;7749;49.964;7.890;2023-10-08T14:58:07;31.40;59.20
15296;DHT22;7749;49.964;7.890;2023-10-08T15:00:38;31.50;58.90
15296;DHT22;7749;49.964;7.890;2023-10-08T15:03:07;31.00;61.30
15296;DHT22;7749;49.964;7.890;2023-10-08T15:05:36;30.30;63.40
15296;DHT22;7749;49.964;7.890;2023-10-08T15:08:06;30.10;64.50
15296;DHT22;7749;49.964;7.890;2023-10-08T15:10:38;30.30;65.70
15296;DHT22;7749;49.964;7.890;2023-10-08T15:13:09;30.80;64.90
15296;DHT22;7749;49.964;7.890;2023-10-08T15:15:36;31.30;64.30
15296;DHT22;7749;49.964;7.890;2023-10-08T15:18:07;32.00;63.10
15296;DHT22;7749;49.964;7.890;2023-10-08T15:20:39;32.30;61.60
15296;DHT22;7749;49.964;7.890;2023-10-08T15:23:08;31.90;62.90
15296;DHT22;7749;49.964;7.890;2023-10-08T15:25:40;30.80;64.60
15296;DHT22;7749;49.964;7.890;2023-10-08T15:28:08;29.90;67.10
15296;DHT22;7749;49.964;7.890;2023-10-08T15:30:35;29.10;69.70
15296;DHT22;7749;49.964;7.890;2023-10-08T15:33:03;28.50;71.80
15296;DHT22;7749;49.964;7.890;2023-10-08T15:35:30;28.20;72.10
15296;DHT22;7749;49.964;7.890;2023-10-08T15:37:58;28.00;72.50
15296;DHT22;7749;49.964;7.890;2023-10-08T15:40:25;27.70;73.30
15296;DHT22;7749;49.964;7.890;2023-10-08T15:42:54;27.50;74.40
15296;DHT22;7749;49.964;7.890;2023-10-08T15:45:24;27.30;75.90
15296;DHT22;7749;49.964;7.890;2023-10-08T15:47:52;26.90;78.90
15296;DHT22;7749;49.964;7.890;2023-10-08T15:50:21;26.60;80.80
15296;DHT22;7749;49.964;7.890;2023-10-08T15:52:53;26.30;81.00
15296;DHT22;7749;49.964;7.890;2023-10-08T15:55:22;26.00;83.10
15296;DHT22;7749;49.964;7.890;2023-10-08T15:57:52;25.70;99.90
15296;DHT22;7749;49.964;7.890;2023-10-08T16:00:19;25.30;1.00
15296;DHT22;7749;49.964;7.890;2023-10-08T16:02:47;25.10;1.00
15296;DHT22;7749;49.964;7.890;2023-10-08T16:05:16;25.00;99.90
15296;DHT22;7749;49.964;7.890;2023-10-08T16:07:45;25.00;99.90
15296;DHT22;7749;49.964;7.890;2023-10-08T16:10:13;25.00;99.90
15296;DHT22;7749;49.964;7.890;2023-10-08T16:12:41;25.00;99.90
15296;DHT22;7749;49.964;7.890;2023-10-08T16:15:08;25.00;99.90
15296;DHT22;7749;49.964;7.890;2023-10-08T16:17:36;24.80;99.90
15296;DHT22;7749;49.964;7.890;2023-10-08T16:20:07;24.80;99.90
15296;DHT22;7749;49.964;7.890;2023-10-08T16:22:42;24.70;99.90
15296;DHT22;7749;49.964;7.890;2023-10-08T16:25:18;24.40;1.00
15296;DHT22;7749;49.964;7.890;2023-10-08T16:27:51;24.20;99.90
15296;DHT22;7749;49.964;7.890;2023-10-08T16:30:24;24.00;1.00
15296;DHT22;7749;49.964;7.890;2023-10-08T16:32:56;23.70;99.90